Two Harbors, MN

6:46 AM CST on February 26, 2017 (GMT -0600)
Silver Bay Municipal

Weather History for KBFW - February, 2013

Change the Weather History Date:

Friday, February 22, 2013

  Actual Average Record
Temperature  
Mean Temperature 24 °F -  
Max Temperature 26 °F 26 °F 44 °F (2017)
Min Temperature 21 °F 6 °F -14 °F (2015)
Degree Days  
Heating Degree Days 42    
Moisture  
Dew Point 20 °F    
Average Humidity 82    
Maximum Humidity 93    
Minimum Humidity 74    
Precipitation  
Precipitation 0.03 in - - ()
Sea Level Pressure  
Sea Level Pressure 29.94 in    
Wind  
Wind Speed 12 mph (ENE)    
Max Wind Speed 22 mph    
Max Gust Speed 30 mph    
Visibility 5 miles    
Events Snow    
Averages and records for this station are not official NWS values.
T = Trace of Precipitation, MM = Missing Value Source: NWS Daily Summary

Daily Weather History Graph

Daily Weather History Graph

Search for Another Location

Airport or City:

Trip Planner

Search our weather history database for the weather conditions in past years. The results will help you decide how hot, cold, wet, or windy it might be!

Date:

Astronomy

Feb. 22, 2013 Rise Set
Actual Time 6:58 AM CST 5:40 PM CST
Civil Twilight 6:27 AM CST 6:11 PM CST
Nautical Twilight 5:51 AM CST 6:47 PM CST
Astronomical Twilight 5:16 AM CST 7:22 PM CST
Moon 2:44 PM CST (2/22) 4:52 AM CST (2/22)
Length of Visible Light 11h 44m
Length of Day
10h 42m
Waxing Gibbous, 90% of the Moon is Illuminated
Feb 22
Waxing Gibbous
Feb 25
Full
Mar 4
Last Quarter
Mar 11
New
Mar 19
First Quarter

Hourly Weather History & Observations

Time (CST) Temp. Windchill Dew Point Humidity Pressure Visibility Wind Dir Wind Speed Gust Speed Precip Events Conditions
12:13 AM 21.2 °F 10.9 °F 17.6 °F 86% 30.17 in 10.0 mi ENE 9.2 mph 19.6 mph N/A   Overcast
12:33 AM 21.2 °F 9.5 °F 17.6 °F 86% 30.16 in 10.0 mi NE 11.5 mph 17.3 mph N/A   Overcast
12:53 AM 21.2 °F 8.9 °F 17.6 °F 86% 30.16 in 10.0 mi ENE 12.7 mph 20.7 mph N/A   Overcast
1:13 AM 21.2 °F 9.5 °F 19.4 °F 93% 30.15 in 10.0 mi ENE 11.5 mph 17.3 mph N/A   Overcast
1:33 AM 21.2 °F 10.1 °F 19.4 °F 93% 30.14 in 10.0 mi ENE 10.4 mph 20.7 mph N/A   Overcast
2:13 AM 23.0 °F 10.1 °F 21.2 °F 93% 30.13 in 10.0 mi ENE 15.0 mph 20.7 mph N/A   Overcast
2:33 AM 24.8 °F 14.0 °F 21.2 °F 86% 30.12 in 10.0 mi East 11.5 mph 18.4 mph N/A   Overcast
2:53 AM 24.8 °F 14.0 °F 21.2 °F 86% 30.11 in 10.0 mi East 11.5 mph 18.4 mph N/A   Mostly Cloudy
3:13 AM 24.8 °F 14.0 °F 21.2 °F 86% 30.10 in 10.0 mi East 11.5 mph - N/A   Mostly Cloudy
3:33 AM 24.8 °F 11.9 °F 21.2 °F 86% 30.09 in 10.0 mi East 16.1 mph 21.9 mph N/A   Overcast
3:53 AM 24.8 °F 11.9 °F 21.2 °F 86% 30.08 in 10.0 mi East 16.1 mph 24.2 mph N/A   Overcast
4:13 AM 24.8 °F 14.0 °F 21.2 °F 86% 30.07 in 10.0 mi East 11.5 mph 19.6 mph N/A   Overcast
4:33 AM 24.8 °F 12.4 °F 21.2 °F 86% 30.06 in 7.0 mi East 15.0 mph 21.9 mph N/A   Overcast
4:53 AM 24.8 °F 12.9 °F 21.2 °F 86% 30.05 in 10.0 mi East 13.8 mph 19.6 mph N/A   Overcast
5:13 AM 24.8 °F 12.4 °F 21.2 °F 86% 30.04 in 10.0 mi East 15.0 mph 23.0 mph N/A   Mostly Cloudy
5:33 AM 24.8 °F 11.9 °F 21.2 °F 86% 30.03 in 10.0 mi East 16.1 mph 23.0 mph N/A   Mostly Cloudy
6:13 AM 24.8 °F 11.5 °F 21.2 °F 86% 30.02 in 10.0 mi East 17.3 mph 25.3 mph N/A   Scattered Clouds
6:33 AM 24.8 °F 12.4 °F 21.2 °F 86% 30.01 in 7.0 mi East 15.0 mph 25.3 mph N/A   Scattered Clouds
6:53 AM 24.8 °F 13.4 °F 21.2 °F 86% 30.01 in 10.0 mi ENE 12.7 mph 26.5 mph N/A   Mostly Cloudy
7:13 AM 24.8 °F 11.9 °F 21.2 °F 86% 30.00 in 10.0 mi East 16.1 mph 27.6 mph N/A   Mostly Cloudy
7:33 AM 26.6 °F 12.4 °F 21.2 °F 80% 29.99 in 7.0 mi East 21.9 mph - N/A   Mostly Cloudy
7:53 AM 26.6 °F 13.4 °F 21.2 °F 80% 30.00 in 7.0 mi East 18.4 mph 28.8 mph N/A   Scattered Clouds
8:13 AM 26.6 °F 13.1 °F 21.2 °F 80% 29.99 in 10.0 mi East 19.6 mph 26.5 mph N/A   Scattered Clouds
8:33 AM 26.6 °F 14.7 °F 21.2 °F 80% 29.98 in 10.0 mi East 15.0 mph 25.3 mph N/A   Scattered Clouds
8:54 AM 26.6 °F 14.3 °F 21.2 °F 80% 29.97 in 7.0 mi East 16.1 mph 29.9 mph N/A   Mostly Cloudy
9:13 AM 26.6 °F 13.8 °F 21.2 °F 80% 29.97 in 1.8 mi East 17.3 mph 28.8 mph N/A Snow Light Snow
9:33 AM 26.6 °F 13.1 °F 21.2 °F 80% 29.96 in 1.0 mi East 19.6 mph 28.8 mph N/A Snow Light Snow
9:53 AM 26.6 °F 13.1 °F 21.2 °F 80% 29.96 in 0.8 mi East 19.6 mph 28.8 mph N/A Snow Light Snow
10:33 AM 26.6 °F 14.7 °F 21.2 °F 80% 29.95 in 0.5 mi East 15.0 mph 27.6 mph N/A Snow Light Snow
10:53 AM 26.6 °F 14.7 °F 21.2 °F 80% 29.95 in 0.2 mi East 15.0 mph 24.2 mph N/A Snow Snow
11:13 AM 26.6 °F 14.7 °F 21.2 °F 80% 29.95 in 0.5 mi ENE 15.0 mph 20.7 mph 0.01 in Snow Light Snow
11:33 AM 26.6 °F 15.7 °F 21.2 °F 80% 29.95 in 0.5 mi East 12.7 mph 21.9 mph 0.01 in Snow Light Snow
11:53 AM 24.8 °F 14.6 °F 21.2 °F 86% 29.94 in 0.2 mi ENE 10.4 mph 23.0 mph N/A Snow Snow
12:13 PM 26.6 °F 15.2 °F 21.2 °F 80% 29.93 in 0.5 mi ENE 13.8 mph 19.6 mph 0.01 in Snow Light Snow
12:33 PM 26.6 °F 14.3 °F 21.2 °F 80% 29.92 in 0.8 mi ENE 16.1 mph 23.0 mph 0.01 in Snow Light Snow
12:53 PM 26.6 °F 14.3 °F 21.2 °F 80% 29.92 in 1.0 mi ENE 16.1 mph 23.0 mph N/A Snow Light Snow
1:13 PM 26.6 °F 14.7 °F 21.2 °F 80% 29.91 in 1.2 mi East 15.0 mph 21.9 mph N/A Snow Light Snow
1:33 PM 26.6 °F 14.3 °F 21.2 °F 80% 29.90 in 1.2 mi ENE 16.1 mph 23.0 mph N/A Snow Light Snow
1:53 PM 26.6 °F 15.2 °F 21.2 °F 80% 29.90 in 1.0 mi ENE 13.8 mph 24.2 mph N/A Snow Light Snow
2:13 PM 26.6 °F 19.1 °F 21.2 °F 80% 29.89 in 1.0 mi ENE 6.9 mph 16.1 mph N/A Snow Light Snow
2:33 PM 26.6 °F 15.2 °F 21.2 °F 80% 29.88 in 1.2 mi ENE 13.8 mph 20.7 mph N/A Snow Light Snow
2:53 PM 26.6 °F 15.7 °F 21.2 °F 80% 29.88 in 1.0 mi ENE 12.7 mph 23.0 mph N/A Snow Light Snow
3:13 PM 26.6 °F 15.7 °F 21.2 °F 80% 29.87 in 1.2 mi ENE 12.7 mph 20.7 mph N/A Snow Light Snow
3:33 PM 26.6 °F 15.7 °F 21.2 °F 80% 29.86 in 1.0 mi ENE 12.7 mph 18.4 mph N/A Snow Light Snow
3:53 PM 26.6 °F 15.7 °F 21.2 °F 80% 29.86 in 1.2 mi ENE 12.7 mph 23.0 mph N/A Snow Light Snow
4:13 PM 26.6 °F 17.5 °F 21.2 °F 80% 29.86 in 1.5 mi ENE 9.2 mph 17.3 mph N/A Snow Light Snow
4:33 PM 24.8 °F 13.4 °F 21.2 °F 86% 29.86 in 1.2 mi ENE 12.7 mph 18.4 mph N/A Snow Light Snow
4:53 PM 24.8 °F 11.5 °F 21.2 °F 86% 29.86 in 1.8 mi ENE 17.3 mph 21.9 mph N/A Snow Light Snow
5:13 PM 24.8 °F 14.0 °F 21.2 °F 86% 29.86 in 2.0 mi ENE 11.5 mph 20.7 mph N/A   Mostly Cloudy
5:33 PM 24.8 °F 13.4 °F 21.2 °F 86% 29.85 in 3.0 mi ENE 12.7 mph 21.9 mph N/A Snow Light Snow
5:53 PM 24.8 °F 14.0 °F 21.2 °F 86% 29.85 in 2.0 mi ENE 11.5 mph 19.6 mph N/A Snow Light Snow
6:13 PM 24.8 °F 16.1 °F 21.2 °F 86% 29.85 in 1.8 mi ENE 8.1 mph - N/A Snow Light Snow
6:33 PM 24.8 °F 16.9 °F 19.4 °F 80% 29.86 in 1.8 mi NE 6.9 mph - N/A Snow Light Snow
6:53 PM 24.8 °F 16.9 °F 19.4 °F 80% 29.85 in 2.0 mi NE 6.9 mph - N/A Snow Light Snow
7:13 PM 24.8 °F 16.9 °F 19.4 °F 80% 29.85 in 2.0 mi NE 6.9 mph - 0.01 in Snow Light Snow
7:34 PM 24.8 °F 16.9 °F 19.4 °F 80% 29.84 in 2.5 mi NE 6.9 mph - 0.01 in Snow Light Snow
7:53 PM 24.8 °F 17.9 °F 19.4 °F 80% 29.84 in 5.0 mi NE 5.8 mph - N/A Snow Light Snow
8:13 PM 24.8 °F 16.9 °F 17.6 °F 74% 29.83 in 7.0 mi NE 6.9 mph - N/A Snow Light Snow
8:33 PM 24.8 °F 16.1 °F 17.6 °F 74% 29.83 in 7.0 mi NE 8.1 mph - N/A Snow Light Snow
8:53 PM 24.8 °F 17.9 °F 19.4 °F 80% 29.83 in 4.0 mi NE 5.8 mph - N/A Snow Light Snow
9:14 PM 24.8 °F 16.9 °F 17.6 °F 74% 29.83 in 5.0 mi NE 6.9 mph - N/A Snow Light Snow
9:33 PM 24.8 °F 17.9 °F 17.6 °F 74% 29.82 in 5.0 mi NE 5.8 mph - N/A Snow Light Snow
9:53 PM 24.8 °F 16.9 °F 17.6 °F 74% 29.81 in 5.0 mi NE 6.9 mph - N/A Snow Light Snow
10:13 PM 24.8 °F 17.9 °F 17.6 °F 74% 29.80 in 7.0 mi NNE 5.8 mph - N/A Snow Light Snow
10:33 PM 24.8 °F 17.9 °F 17.6 °F 74% 29.80 in 7.0 mi NNE 5.8 mph - N/A Snow Light Snow
10:53 PM 24.8 °F 20.5 °F 19.4 °F 80% 29.80 in 10.0 mi NNE 3.5 mph - N/A   Mostly Cloudy
11:13 PM 24.8 °F 17.9 °F 19.4 °F 80% 29.80 in 7.0 mi NNE 5.8 mph - N/A Snow Light Snow
11:33 PM 24.8 °F 19.1 °F 19.4 °F 80% 29.79 in 10.0 mi North 4.6 mph - N/A   Mostly Cloudy
11:53 PM 24.8 °F 20.5 °F 19.4 °F 80% 29.79 in 10.0 mi North 3.5 mph - N/A   Scattered Clouds